KEEN/EEN METAR and TAF weather

Enter ICAO airport designator
Station Type Date Time Source
KEEN METAR 2019/04/18 19:56 UTC NOAA

KEEN 181956Z AUTO 19010KT 10SM OVC020 09/05 A3008 RMK AO2 SLP207 T00890050 PNO $


Station Type Date Time Source
KEEN Decoded METAR 2019/04/18 19:56 UTC NOAA

Keene, Dillant-Hopkins Airport, NH, United States (KEEN) 42-54N 072-16W
Apr 18, 2019 - 03:56 PM EDT / 2019.04.18 1956 UTC
Wind: from the S (190 degrees) at 12 MPH (10 KT):0
Visibility: 10 mile(s):0
Sky conditions: overcast
Temperature: 48.0 F (8.9 C)
Dew Point: 41.0 F (5.0 C)
Relative Humidity: 76%
Pressure (altimeter): 30.08 in. Hg (1018 hPa)
ob: KEEN 181956Z AUTO 19010KT 10SM OVC020 09/05 A3008 RMK AO2 SLP207 T00890050 PNO
cycle: 20

Station Type Date Time Source
KEEN TAF UTC NOAA

Error!

Example: see airport list